createdAt,value
2018-08-06T00:01:22.825Z,2.80
2018-08-06T00:06:26.244Z,2.62
2018-08-06T00:11:29.619Z,2.55
2018-08-06T00:16:33.028Z,2.50
2018-08-06T00:21:36.476Z,2.30
2018-08-06T00:26:39.890Z,2.97
2018-08-06T00:31:43.300Z,2.80
2018-08-06T00:36:46.824Z,3.27
2018-08-06T00:41:50.305Z,2.45
2018-08-06T00:46:53.725Z,3.10
2018-08-06T00:51:57.241Z,2.70
2018-08-06T00:57:01.366Z,2.47
2018-08-06T01:02:04.854Z,2.40
2018-08-06T01:07:08.402Z,2.50
2018-08-06T01:12:11.877Z,2.40
2018-08-06T01:17:15.365Z,2.50
2018-08-06T01:22:18.857Z,2.60
2018-08-06T01:27:22.254Z,2.30
2018-08-06T01:32:26.600Z,2.93
2018-08-06T01:37:31.271Z,2.95
2018-08-06T01:42:42.188Z,2.30
2018-08-06T01:47:45.984Z,2.30
2018-08-06T01:52:50.626Z,2.60
2018-08-06T01:57:59.650Z,3.42
2018-08-06T02:03:11.436Z,2.52
2018-08-06T02:08:14.940Z,2.50
2018-08-06T02:13:18.436Z,2.30
2018-08-06T02:18:21.829Z,2.80
2018-08-06T02:23:25.206Z,2.70
2018-08-06T02:28:29.343Z,3.00
2018-08-06T02:33:32.941Z,4.20
2018-08-06T02:38:36.507Z,2.42
2018-08-06T02:43:44.161Z,2.70
2018-08-06T02:48:47.470Z,2.42
2018-08-06T02:53:50.947Z,2.90
2018-08-06T02:58:54.311Z,2.50
2018-08-06T03:03:57.738Z,2.90
2018-08-06T03:09:01.136Z,2.77
2018-08-06T03:14:04.722Z,3.10
2018-08-06T03:19:08.192Z,2.67
2018-08-06T03:24:11.700Z,2.70
2018-08-06T03:29:15.180Z,3.60
2018-08-06T03:34:18.608Z,3.77
2018-08-06T03:39:22.147Z,3.35
2018-08-06T03:44:25.615Z,3.05
2018-08-06T03:49:29.670Z,4.47
2018-08-06T03:54:33.177Z,3.70
2018-08-06T03:59:36.622Z,3.30
2018-08-06T04:04:40.032Z,3.10
2018-08-06T04:09:43.499Z,2.70
2018-08-06T04:14:46.858Z,3.62
2018-08-06T04:19:50.349Z,3.30
2018-08-06T04:24:54.185Z,4.55
2018-08-06T04:29:57.523Z,6.17
2018-08-06T04:35:00.997Z,3.30
2018-08-06T04:40:11.884Z,3.50
2018-08-06T04:45:15.288Z,6.45
2018-08-06T04:50:18.792Z,4.72
2018-08-06T04:55:22.180Z,4.80
2018-08-06T05:00:25.718Z,3.85
2018-08-06T05:05:31.128Z,3.98
2018-08-06T05:10:40.792Z,5.97
2018-08-06T05:15:44.603Z,4.60
2018-08-06T05:20:47.943Z,4.45
2018-08-06T05:25:52.035Z,5.10
2018-08-06T05:31:06.688Z,5.93
2018-08-06T05:36:11.228Z,8.98
2018-08-06T05:47:06.740Z,3.75
2018-08-06T05:52:33.375Z,3.80
2018-08-06T05:57:39.598Z,4.42
2018-08-06T06:02:43.513Z,2.50
2018-08-06T06:07:48.871Z,4.13
2018-08-06T06:12:52.345Z,2.70
2018-08-06T06:17:55.751Z,3.62
2018-08-06T06:22:59.219Z,3.90
2018-08-06T06:28:02.683Z,3.65
2018-08-06T06:33:05.978Z,4.90
2018-08-06T06:38:09.419Z,5.87
2018-08-06T06:43:13.909Z,3.47
2018-08-06T06:48:17.751Z,3.20
2018-08-06T06:53:21.158Z,6.80
2018-08-06T06:58:24.548Z,5.90
2018-08-06T07:03:27.976Z,5.50
2018-08-06T07:08:31.483Z,2.80
2018-08-06T07:13:34.961Z,5.45
2018-08-06T07:18:38.391Z,4.67
2018-08-06T07:23:41.746Z,3.70
2018-08-06T07:28:45.400Z,5.42
2018-08-06T07:33:48.881Z,4.72
2018-08-06T07:38:52.259Z,5.17
2018-08-06T07:43:55.648Z,3.33
2018-08-06T07:48:59.045Z,4.50
2018-08-06T07:54:03.559Z,3.60
2018-08-06T07:59:07.007Z,4.50
2018-08-06T08:04:21.876Z,3.50
2018-08-06T08:09:26.201Z,3.93
2018-08-06T08:14:29.282Z,4.30
2018-08-06T08:19:32.660Z,2.80
2018-08-06T08:24:36.815Z,3.35
2018-08-06T08:29:42.353Z,3.85
2018-08-06T08:34:46.505Z,3.90
2018-08-06T08:39:49.934Z,2.80
2018-08-06T08:44:53.338Z,3.42
2018-08-06T08:49:56.700Z,2.80
2018-08-06T08:55:00.139Z,2.65
2018-08-06T09:00:04.813Z,2.90
2018-08-06T09:05:08.176Z,3.27
2018-08-06T09:10:12.892Z,3.10
2018-08-06T09:15:23.159Z,2.95
2018-08-06T09:20:27.659Z,3.70
2018-08-06T09:25:39.543Z,2.90
2018-08-06T09:30:42.997Z,3.08
2018-08-06T09:35:46.454Z,3.35
2018-08-06T09:40:49.859Z,4.97
2018-08-06T09:45:55.264Z,2.87
2018-08-06T09:50:58.687Z,2.80
2018-08-06T09:56:02.112Z,2.50
2018-08-06T10:01:10.894Z,2.97
2018-08-06T10:06:14.280Z,2.60
2018-08-06T10:11:17.996Z,3.17
2018-08-06T10:16:21.647Z,4.00
2018-08-06T10:21:26.126Z,2.83
2018-08-06T10:26:29.491Z,3.10
2018-08-06T10:31:32.812Z,4.17
2018-08-06T10:36:36.276Z,2.40
2018-08-06T10:41:52.071Z,2.90
2018-08-06T10:46:55.608Z,2.60
2018-08-06T10:51:59.096Z,3.92
2018-08-06T10:57:02.471Z,2.60
2018-08-06T11:02:07.830Z,2.72
2018-08-06T11:07:12.701Z,3.37
2018-08-06T11:12:18.102Z,2.90
2018-08-06T11:17:22.126Z,2.33
2018-08-06T11:22:25.559Z,2.60
2018-08-06T11:27:28.899Z,2.30
2018-08-06T11:32:32.277Z,2.30
2018-08-06T11:37:35.860Z,3.15
2018-08-06T11:42:40.456Z,2.60
2018-08-06T11:47:49.853Z,2.60
2018-08-06T11:52:57.136Z,2.50
2018-08-06T11:58:01.674Z,2.60
2018-08-06T12:08:44.263Z,3.55
2018-08-06T12:30:36.934Z,3.12
2018-08-06T12:35:52.199Z,3.72
2018-08-06T12:40:59.531Z,2.90
2018-08-06T12:46:06.741Z,3.62
2018-08-06T12:51:10.154Z,3.02
2018-08-06T12:56:14.193Z,3.00
2018-08-06T13:01:17.971Z,2.77
2018-08-06T13:06:21.355Z,3.25
2018-08-06T13:11:24.762Z,2.83
2018-08-06T13:16:34.627Z,3.03
2018-08-06T13:21:37.949Z,3.30
2018-08-06T13:26:41.443Z,3.20
2018-08-06T13:31:44.941Z,3.00
2018-08-06T13:36:48.395Z,3.10
2018-08-06T13:41:51.791Z,4.55
2018-08-06T13:46:56.359Z,3.10
2018-08-06T13:52:04.502Z,3.40
2018-08-06T13:57:11.305Z,3.83
2018-08-06T14:02:14.703Z,4.90
2018-08-06T14:07:49.003Z,3.40
2018-08-06T14:12:58.604Z,3.47
2018-08-06T14:18:06.580Z,3.80
2018-08-06T14:23:17.675Z,4.20
2018-08-06T14:28:27.768Z,3.80
2018-08-06T14:33:40.130Z,3.60
2018-08-06T14:44:00.996Z,3.50
2018-08-06T14:49:04.379Z,3.70
2018-08-06T14:54:09.801Z,3.70
2018-08-06T14:59:14.265Z,3.40
2018-08-06T15:04:35.294Z,3.80
2018-08-06T15:09:38.676Z,3.60
2018-08-06T15:14:42.090Z,3.83
2018-08-06T15:19:45.472Z,3.40
2018-08-06T15:24:50.834Z,3.80
2018-08-06T15:29:54.533Z,3.85
2018-08-06T15:34:57.815Z,3.45
2018-08-06T15:40:01.176Z,3.60
2018-08-06T15:45:04.633Z,3.60
2018-08-06T15:50:12.903Z,4.12
2018-08-06T15:55:16.209Z,5.25
2018-08-06T16:00:34.085Z,3.70
2018-08-06T16:11:07.896Z,4.33
2018-08-06T16:16:11.190Z,3.70
2018-08-06T16:21:14.545Z,4.10
2018-08-06T16:26:17.889Z,3.60
2018-08-06T16:31:21.491Z,3.60
2018-08-06T16:36:25.920Z,3.47
2018-08-06T16:41:29.271Z,3.53
2018-08-06T16:46:32.749Z,3.57
2018-08-06T16:51:37.183Z,3.30
2018-08-06T16:56:40.555Z,3.70
2018-08-06T17:01:43.952Z,3.50
2018-08-06T17:06:48.629Z,3.50
2018-08-06T17:11:52.045Z,4.10
2018-08-06T17:16:55.395Z,3.33
2018-08-06T17:21:59.003Z,3.30
2018-08-06T17:27:02.648Z,3.40
2018-08-06T17:32:09.046Z,4.35
2018-08-06T17:37:12.419Z,3.70
2018-08-06T17:42:15.784Z,4.10
2018-08-06T17:47:20.519Z,3.70
2018-08-06T17:52:24.546Z,3.83
2018-08-06T17:57:28.631Z,3.60
2018-08-06T18:02:35.892Z,4.80
2018-08-06T18:07:42.553Z,3.40
2018-08-06T18:12:47.091Z,3.60
2018-08-06T18:17:50.628Z,4.55
2018-08-06T18:22:54.124Z,3.80
2018-08-06T18:27:57.721Z,4.00
2018-08-06T18:33:01.124Z,4.60
2018-08-06T18:38:04.649Z,5.50
2018-08-06T18:43:08.574Z,5.20
2018-08-06T18:48:12.105Z,5.10
2018-08-06T18:53:15.505Z,4.70
2018-08-06T18:58:20.110Z,4.40
2018-08-06T19:03:23.635Z,6.20
2018-08-06T19:08:27.194Z,10.58
2018-08-06T19:13:35.932Z,9.20
2018-08-06T19:18:44.634Z,8.50
2018-08-06T19:23:48.424Z,8.10
2018-08-06T19:28:52.905Z,6.80
2018-08-06T19:33:57.530Z,5.78
2018-08-06T19:39:09.355Z,4.60
2018-08-06T19:44:19.097Z,5.87
2018-08-06T19:49:27.930Z,5.17
2018-08-06T19:54:37.444Z,6.83
2018-08-06T19:59:41.045Z,5.40
2018-08-06T20:04:47.197Z,5.63
2018-08-06T20:09:56.958Z,5.60
2018-08-06T20:15:06.414Z,5.10
2018-08-06T20:20:11.475Z,4.80
2018-08-06T20:25:20.635Z,5.20
2018-08-06T20:30:24.592Z,5.20
2018-08-06T20:35:28.023Z,5.50
2018-08-06T20:40:32.416Z,5.75
2018-08-06T20:46:07.660Z,5.40
2018-08-06T20:51:11.112Z,5.40
2018-08-06T20:56:14.723Z,5.58
2018-08-06T21:01:18.148Z,6.33
2018-08-06T21:06:21.942Z,5.50
2018-08-06T21:11:32.744Z,5.73
2018-08-06T21:16:36.232Z,5.30
2018-08-06T21:21:45.177Z,5.37
2018-08-06T21:26:49.936Z,5.20
2018-08-06T21:31:53.588Z,5.40
2018-08-06T21:36:57.912Z,5.93
2018-08-06T21:42:01.426Z,5.30
2018-08-06T21:47:04.915Z,6.80
2018-08-06T21:52:08.679Z,6.50
2018-08-06T21:57:16.423Z,5.78
2018-08-06T22:02:24.496Z,6.08
2018-08-06T22:07:27.874Z,5.70
2018-08-06T22:12:31.311Z,6.05
2018-08-06T22:17:34.750Z,5.50
2018-08-06T22:22:38.272Z,5.90
2018-08-06T22:27:42.310Z,5.33
2018-08-06T22:32:47.046Z,5.30
2018-08-06T22:37:50.493Z,5.33
2018-08-06T22:42:54.894Z,5.53
2018-08-06T22:47:58.240Z,6.42
2018-08-06T22:53:01.663Z,5.40
2018-08-06T22:58:05.126Z,5.10
2018-08-06T23:03:09.330Z,5.80
2018-08-06T23:08:12.705Z,5.95
2018-08-06T23:13:16.187Z,5.42
2018-08-06T23:18:20.007Z,5.62
2018-08-06T23:23:23.421Z,6.00
2018-08-06T23:28:28.807Z,5.60
2018-08-06T23:33:32.248Z,6.60
2018-08-06T23:38:35.660Z,5.80
2018-08-06T23:43:38.994Z,5.90
2018-08-06T23:48:42.383Z,5.90
2018-08-06T23:59:13.938Z,5.60
